createdAt,value
2017-11-03T00:02:18.030Z,23.13
2017-11-03T00:04:45.481Z,21.60
2017-11-03T00:07:12.969Z,20.03
2017-11-03T00:09:41.189Z,18.50
2017-11-03T00:12:08.676Z,19.50
2017-11-03T00:14:36.153Z,19.70
2017-11-03T00:17:03.636Z,18.30
2017-11-03T00:19:31.117Z,16.83
2017-11-03T00:21:58.608Z,19.93
2017-11-03T00:24:26.079Z,17.67
2017-11-03T00:26:53.537Z,16.77
2017-11-03T00:29:21.067Z,17.27
2017-11-03T00:31:48.530Z,18.00
2017-11-03T00:34:16.004Z,18.83
2017-11-03T00:36:43.479Z,20.67
2017-11-03T00:39:11.724Z,19.80
2017-11-03T00:41:39.207Z,18.60
2017-11-03T00:44:06.663Z,19.60
2017-11-03T00:46:34.146Z,20.60
2017-11-03T00:49:01.601Z,19.53
2017-11-03T00:51:29.082Z,21.83
2017-11-03T00:53:56.579Z,21.17
2017-11-03T00:56:24.033Z,17.97
2017-11-03T00:58:51.537Z,17.63
2017-11-03T01:01:19.049Z,21.70
2017-11-03T01:03:46.530Z,18.43
2017-11-03T01:06:14.938Z,18.67
2017-11-03T01:08:42.431Z,17.50
2017-11-03T01:11:09.910Z,18.53
2017-11-03T01:13:37.377Z,20.90
2017-11-03T01:16:04.860Z,20.73
2017-11-03T01:18:32.323Z,20.30
2017-11-03T01:20:59.796Z,22.17
2017-11-03T01:23:27.277Z,22.80
2017-11-03T01:25:55.071Z,22.03
2017-11-03T01:28:22.516Z,21.83
2017-11-03T01:30:50.007Z,21.97
2017-11-03T01:33:18.258Z,24.40
2017-11-03T01:35:46.510Z,24.47
2017-11-03T01:38:14.026Z,24.37
2017-11-03T01:40:41.503Z,24.20
2017-11-03T01:43:08.984Z,23.17
2017-11-03T01:45:36.532Z,25.40
2017-11-03T01:48:03.999Z,25.67
2017-11-03T01:50:31.582Z,28.53
2017-11-03T01:52:59.824Z,25.40
2017-11-03T01:55:27.286Z,25.17
2017-11-03T01:57:54.766Z,25.00
2017-11-03T02:00:22.298Z,23.93
2017-11-03T02:02:49.788Z,23.17
2017-11-03T02:05:17.237Z,25.27
2017-11-03T02:07:44.730Z,26.87
2017-11-03T02:10:12.201Z,30.07
2017-11-03T02:12:39.685Z,31.33
2017-11-03T02:15:07.140Z,32.10
2017-11-03T02:17:35.037Z,34.20
2017-11-03T02:20:02.529Z,29.77
2017-11-03T02:22:30.034Z,32.00
2017-11-03T02:24:57.501Z,29.13
2017-11-03T02:27:24.967Z,28.47
2017-11-03T02:29:52.527Z,27.63
2017-11-03T02:32:19.982Z,30.13
2017-11-03T02:34:47.468Z,26.13
2017-11-03T02:37:15.714Z,29.87
2017-11-03T02:39:43.153Z,28.10
2017-11-03T02:42:10.627Z,32.20
2017-11-03T02:44:38.194Z,26.80
2017-11-03T02:47:05.681Z,26.70
2017-11-03T02:49:33.139Z,27.40
2017-11-03T02:52:00.642Z,31.70
2017-11-03T02:54:28.110Z,29.60
2017-11-03T02:56:55.571Z,30.47
2017-11-03T02:59:23.103Z,33.50
2017-11-03T03:01:50.564Z,30.67
2017-11-03T03:04:18.055Z,31.37
2017-11-03T03:06:46.428Z,34.77
2017-11-03T03:09:13.909Z,37.27
2017-11-03T03:11:41.414Z,32.37
2017-11-03T03:14:08.875Z,34.37
2017-11-03T03:16:36.353Z,33.53
2017-11-03T03:19:03.825Z,31.67
2017-11-03T03:21:32.092Z,35.27
2017-11-03T03:23:59.553Z,33.87
2017-11-03T03:26:27.105Z,38.70
2017-11-03T03:28:54.591Z,29.47
2017-11-03T03:31:22.830Z,32.77
2017-11-03T03:33:50.308Z,29.40
2017-11-03T03:36:17.782Z,26.93
2017-11-03T03:38:45.246Z,30.70
2017-11-03T03:41:12.744Z,29.00
2017-11-03T03:43:47.644Z,31.40
2017-11-03T03:46:15.097Z,33.87
2017-11-03T03:48:42.613Z,41.80
2017-11-03T03:51:10.092Z,30.80
2017-11-03T03:53:37.548Z,30.27
2017-11-03T03:56:05.784Z,28.37
2017-11-03T03:58:33.260Z,34.30
2017-11-03T04:01:00.748Z,35.47
2017-11-03T04:03:28.238Z,25.87
2017-11-03T04:05:55.706Z,30.07
2017-11-03T04:08:23.187Z,30.30
2017-11-03T04:10:50.658Z,31.43
2017-11-03T04:13:18.906Z,30.80
2017-11-03T04:15:46.380Z,28.70
2017-11-03T04:18:13.882Z,31.83
2017-11-03T04:20:41.380Z,37.70
2017-11-03T04:23:08.855Z,32.80
2017-11-03T04:25:36.329Z,32.63
2017-11-03T04:28:04.570Z,29.40
2017-11-03T04:30:32.045Z,32.80
2017-11-03T04:32:59.528Z,33.33
2017-11-03T04:35:27.053Z,27.80
2017-11-03T04:37:54.528Z,30.33
2017-11-03T04:40:22.763Z,31.27
2017-11-03T04:42:50.242Z,36.17
2017-11-03T04:45:17.696Z,33.13
2017-11-03T04:47:45.186Z,29.53
2017-11-03T04:50:12.677Z,30.00
2017-11-03T04:52:40.157Z,30.30
2017-11-03T04:55:07.618Z,28.70
2017-11-03T04:57:35.090Z,28.23
2017-11-03T05:00:02.692Z,30.30
2017-11-03T05:02:30.166Z,29.07
2017-11-03T05:04:57.634Z,29.70
2017-11-03T05:07:25.221Z,30.67
2017-11-03T05:09:53.472Z,27.87
2017-11-03T05:12:20.978Z,26.30
2017-11-03T05:14:49.216Z,29.10
2017-11-03T05:17:16.720Z,27.70
2017-11-03T05:19:44.194Z,23.47
2017-11-03T05:22:11.726Z,24.40
2017-11-03T05:24:39.920Z,27.00
2017-11-03T05:27:07.541Z,28.17
2017-11-03T05:29:35.019Z,28.17
2017-11-03T05:32:03.281Z,29.03
2017-11-03T05:34:31.551Z,30.00
2017-11-03T05:36:59.028Z,33.90
2017-11-03T05:39:27.291Z,28.77
2017-11-03T05:41:54.764Z,27.20
2017-11-03T05:44:23.029Z,28.03
2017-11-03T05:46:51.290Z,28.00
2017-11-03T05:49:18.778Z,30.37
2017-11-03T05:51:46.293Z,29.40
2017-11-03T05:54:13.774Z,25.73
2017-11-03T05:56:41.248Z,26.60
2017-11-03T05:59:08.748Z,29.10
2017-11-03T06:01:36.261Z,28.77
2017-11-03T06:04:04.534Z,28.07
2017-11-03T06:06:32.797Z,28.63
2017-11-03T06:09:01.065Z,26.60
2017-11-03T06:11:28.544Z,26.47
2017-11-03T06:13:56.054Z,25.73
2017-11-03T06:16:23.521Z,28.30
2017-11-03T06:18:51.034Z,28.50
2017-11-03T06:21:18.655Z,28.83
2017-11-03T06:23:46.130Z,28.70
2017-11-03T06:26:13.636Z,28.10
2017-11-03T06:28:41.104Z,30.93
2017-11-03T06:31:08.609Z,26.70
2017-11-03T06:33:36.875Z,30.60
2017-11-03T06:36:04.367Z,29.10
2017-11-03T06:38:31.848Z,28.57
2017-11-03T06:40:59.319Z,27.00
2017-11-03T06:43:26.809Z,26.00
2017-11-03T06:45:55.058Z,28.10
2017-11-03T06:48:22.571Z,25.73
2017-11-03T06:50:50.065Z,30.10
2017-11-03T06:53:17.536Z,28.40
2017-11-03T06:55:45.019Z,29.47
2017-11-03T06:58:13.274Z,29.53
2017-11-03T07:00:40.758Z,29.73
2017-11-03T07:03:08.267Z,29.50
2017-11-03T07:05:35.764Z,29.57
2017-11-03T07:08:03.231Z,25.27
2017-11-03T07:10:31.001Z,29.37
2017-11-03T07:12:58.456Z,26.47
2017-11-03T07:15:25.949Z,30.10
2017-11-03T07:17:53.426Z,29.07
2017-11-03T07:20:20.901Z,31.70
2017-11-03T07:22:56.873Z,31.30
2017-11-03T07:25:25.542Z,29.47
2017-11-03T07:27:54.430Z,27.23
2017-11-03T07:30:21.968Z,28.77
2017-11-03T07:32:49.420Z,28.57
2017-11-03T07:35:16.914Z,29.30
2017-11-03T07:37:44.381Z,27.47
2017-11-03T07:40:11.929Z,30.47
2017-11-03T07:42:40.306Z,29.50
2017-11-03T07:45:08.590Z,28.07
2017-11-03T07:47:36.086Z,31.73
2017-11-03T07:50:03.598Z,27.90
2017-11-03T07:52:31.873Z,31.10
2017-11-03T07:54:59.392Z,26.97
2017-11-03T07:57:27.628Z,35.70
2017-11-03T07:59:55.120Z,31.20
2017-11-03T08:02:22.860Z,26.37
2017-11-03T08:04:50.366Z,25.00
2017-11-03T08:07:17.843Z,20.50
2017-11-03T08:09:46.556Z,26.33
2017-11-03T08:12:14.047Z,23.23
2017-11-03T08:14:41.566Z,30.60
2017-11-03T08:17:09.804Z,28.40
2017-11-03T08:19:38.338Z,30.13
2017-11-03T08:22:06.392Z,29.60
2017-11-03T08:24:34.647Z,26.80
2017-11-03T08:27:02.924Z,27.70
2017-11-03T08:29:30.398Z,29.73
2017-11-03T08:31:57.908Z,26.83
2017-11-03T08:34:25.375Z,28.40
2017-11-03T08:36:52.988Z,23.17
2017-11-03T08:39:20.467Z,27.23
2017-11-03T08:41:48.172Z,27.57
2017-11-03T08:44:15.724Z,21.67
2017-11-03T08:46:43.195Z,21.80
2017-11-03T08:49:10.710Z,23.50
2017-11-03T08:51:38.215Z,19.60
2017-11-03T08:54:06.718Z,30.40
2017-11-03T08:56:34.984Z,26.03
2017-11-03T08:59:04.354Z,32.97
2017-11-03T09:01:31.892Z,31.03
2017-11-03T09:03:59.396Z,24.50
2017-11-03T09:06:27.679Z,29.50
2017-11-03T09:08:55.944Z,22.43
2017-11-03T09:11:24.532Z,22.30
2017-11-03T09:13:52.825Z,19.80
2017-11-03T09:16:20.360Z,23.50
2017-11-03T09:18:48.640Z,19.13
2017-11-03T09:21:16.905Z,19.20
2017-11-03T09:23:45.163Z,20.40
2017-11-03T09:26:12.650Z,22.07
2017-11-03T09:28:40.157Z,24.07
2017-11-03T09:31:08.342Z,25.30
2017-11-03T09:33:35.841Z,23.83
2017-11-03T09:36:04.835Z,26.57
2017-11-03T09:38:32.363Z,23.97
2017-11-03T09:40:59.844Z,22.57
2017-11-03T09:43:28.095Z,24.03
2017-11-03T09:45:55.843Z,20.73
2017-11-03T09:48:23.332Z,22.70
2017-11-03T09:50:50.826Z,19.03
2017-11-03T09:53:18.293Z,19.53
2017-11-03T09:55:45.735Z,22.10
2017-11-03T09:58:13.222Z,21.33
2017-11-03T10:00:40.697Z,20.20
2017-11-03T10:03:08.453Z,21.70
2017-11-03T10:05:35.958Z,20.13
2017-11-03T10:08:04.195Z,20.60
2017-11-03T10:10:31.733Z,20.23
2017-11-03T10:12:59.223Z,19.73
2017-11-03T10:15:26.717Z,22.33
2017-11-03T10:17:54.971Z,21.17
2017-11-03T10:20:22.525Z,18.53
2017-11-03T10:22:50.012Z,20.50
2017-11-03T10:25:17.471Z,19.00
2017-11-03T10:27:44.992Z,18.23
2017-11-03T10:30:12.454Z,17.40
2017-11-03T10:32:40.232Z,19.53
2017-11-03T10:35:07.751Z,18.67
2017-11-03T10:37:35.225Z,17.57
2017-11-03T10:40:02.712Z,16.70
2017-11-03T10:42:30.478Z,16.20
2017-11-03T10:44:58.759Z,17.63
2017-11-03T10:47:26.322Z,17.53
2017-11-03T10:49:54.152Z,17.30
2017-11-03T10:52:21.748Z,17.10
2017-11-03T10:54:49.321Z,20.30
2017-11-03T10:57:17.006Z,19.03
2017-11-03T10:59:44.571Z,17.87
2017-11-03T11:02:12.096Z,18.60
2017-11-03T11:04:40.199Z,16.27
2017-11-03T11:07:08.129Z,16.30
2017-11-03T11:09:35.823Z,16.50
2017-11-03T11:12:03.394Z,20.07
2017-11-03T11:14:31.118Z,19.10
2017-11-03T11:16:58.768Z,16.43
2017-11-03T11:19:27.030Z,18.23
2017-11-03T11:21:54.504Z,17.47
2017-11-03T11:24:22.767Z,17.57
2017-11-03T11:26:52.994Z,16.80
2017-11-03T11:29:20.510Z,15.93
2017-11-03T11:31:48.805Z,16.13
2017-11-03T11:34:16.275Z,11.13
2017-11-03T11:36:43.749Z,9.50
2017-11-03T11:39:11.216Z,8.40
2017-11-03T11:41:39.177Z,9.93
2017-11-03T11:44:06.731Z,8.37
2017-11-03T11:46:34.970Z,6.87
2017-11-03T11:49:02.454Z,10.03
2017-11-03T11:51:29.935Z,8.83
2017-11-03T11:53:57.499Z,8.77
2017-11-03T11:56:24.982Z,8.13
2017-11-03T11:58:52.808Z,7.07
2017-11-03T12:01:20.303Z,7.10
2017-11-03T12:03:47.776Z,7.50
2017-11-03T12:06:15.269Z,6.00
2017-11-03T12:08:43.563Z,5.63
2017-11-03T12:11:11.078Z,5.80
2017-11-03T12:13:38.578Z,6.90
2017-11-03T12:16:06.839Z,6.93
2017-11-03T12:18:35.114Z,6.53
2017-11-03T12:21:03.370Z,6.70
2017-11-03T12:23:30.855Z,5.10
2017-11-03T12:25:59.118Z,6.70
2017-11-03T12:28:26.678Z,6.20
2017-11-03T12:30:54.197Z,6.87
2017-11-03T12:33:22.046Z,6.77
2017-11-03T12:35:49.516Z,7.40
2017-11-03T12:38:16.977Z,7.10
2017-11-03T12:40:44.468Z,6.57
2017-11-03T12:43:11.938Z,6.63
2017-11-03T12:45:39.444Z,7.50
2017-11-03T12:48:06.919Z,7.57
2017-11-03T12:50:34.390Z,7.10
2017-11-03T12:53:01.874Z,8.30
2017-11-03T12:55:29.368Z,7.80
2017-11-03T12:57:57.692Z,8.53
2017-11-03T13:00:25.948Z,8.60
2017-11-03T13:02:53.438Z,9.77
2017-11-03T13:05:21.710Z,8.10
2017-11-03T13:07:49.958Z,8.30
2017-11-03T13:10:17.730Z,9.07
2017-11-03T13:12:45.232Z,8.23
2017-11-03T13:15:12.854Z,8.40
2017-11-03T13:17:40.392Z,8.80
2017-11-03T13:20:08.704Z,8.60
2017-11-03T13:22:37.286Z,7.37
2017-11-03T13:25:05.624Z,8.87
2017-11-03T13:27:33.146Z,9.23
2017-11-03T13:30:00.877Z,9.30
2017-11-03T13:32:28.374Z,9.27
2017-11-03T13:34:56.212Z,10.27
2017-11-03T13:37:23.689Z,10.10
2017-11-03T13:39:51.442Z,10.10
2017-11-03T13:42:18.957Z,9.37
2017-11-03T13:44:46.429Z,8.53
2017-11-03T13:47:13.938Z,10.07
2017-11-03T13:49:41.412Z,9.37
2017-11-03T13:52:08.884Z,9.90
2017-11-03T13:54:36.397Z,8.30
2017-11-03T13:57:03.909Z,10.20
2017-11-03T13:59:31.409Z,8.50
2017-11-03T14:01:59.641Z,9.80
2017-11-03T14:04:27.125Z,9.17
2017-11-03T14:06:54.621Z,9.70
2017-11-03T14:09:22.109Z,8.33
2017-11-03T14:11:49.873Z,9.50
2017-11-03T14:14:17.377Z,8.20
2017-11-03T14:16:44.848Z,8.77
2017-11-03T14:19:12.310Z,9.63
2017-11-03T14:21:39.827Z,9.37
2017-11-03T14:24:07.619Z,8.47
2017-11-03T14:26:35.855Z,8.50
2017-11-03T14:29:03.337Z,8.77
2017-11-03T14:31:30.842Z,9.33
2017-11-03T14:33:58.319Z,7.90
2017-11-03T14:36:25.835Z,8.30
2017-11-03T14:38:53.341Z,9.10
2017-11-03T14:41:21.219Z,9.20
2017-11-03T14:43:48.712Z,8.53
2017-11-03T14:46:16.170Z,8.97
2017-11-03T14:48:43.694Z,8.50
2017-11-03T14:51:11.172Z,9.13
2017-11-03T14:53:39.434Z,9.47
2017-11-03T14:56:07.687Z,8.87
2017-11-03T14:58:35.467Z,8.53
2017-11-03T15:01:02.961Z,8.77
2017-11-03T15:03:30.435Z,8.50
2017-11-03T15:05:59.884Z,9.20
2017-11-03T15:08:27.395Z,9.50
2017-11-03T15:10:55.325Z,9.00
2017-11-03T15:13:23.756Z,8.00
2017-11-03T15:15:51.234Z,8.93
2017-11-03T15:18:18.724Z,8.10
2017-11-03T15:20:47.106Z,7.70
2017-11-03T15:23:14.869Z,10.03
2017-11-03T15:25:42.344Z,8.80
2017-11-03T15:28:09.875Z,8.90
2017-11-03T15:30:37.425Z,9.77
2017-11-03T15:33:04.913Z,9.40
2017-11-03T15:35:32.483Z,9.53
2017-11-03T15:37:59.983Z,10.30
2017-11-03T15:40:27.457Z,10.10
2017-11-03T15:42:54.947Z,9.60
2017-11-03T15:45:22.424Z,9.83
2017-11-03T15:47:49.921Z,10.50
2017-11-03T15:50:17.408Z,11.40
2017-11-03T15:52:44.911Z,11.07
2017-11-03T15:55:12.404Z,11.93
2017-11-03T15:57:39.898Z,10.90
2017-11-03T16:00:10.060Z,12.17
2017-11-03T16:02:37.642Z,12.67
2017-11-03T16:05:05.121Z,16.53
2017-11-03T16:07:32.688Z,13.00
2017-11-03T16:10:00.219Z,13.13
2017-11-03T16:12:27.753Z,12.57
2017-11-03T16:14:55.235Z,13.70
2017-11-03T16:17:22.705Z,13.90
2017-11-03T16:19:50.311Z,14.80
2017-11-03T16:22:17.853Z,14.30
2017-11-03T16:24:45.704Z,16.53
2017-11-03T16:27:13.210Z,16.33
2017-11-03T16:29:40.886Z,17.13
2017-11-03T16:32:08.383Z,16.33
2017-11-03T16:34:35.866Z,16.70
2017-11-03T16:37:03.411Z,18.77
2017-11-03T16:39:31.017Z,18.23
2017-11-03T16:41:58.497Z,17.23
2017-11-03T16:44:25.996Z,17.17
2017-11-03T16:46:53.480Z,18.23
2017-11-03T16:49:21.284Z,17.70
2017-11-03T16:51:48.799Z,18.70
2017-11-03T16:54:16.681Z,19.23
2017-11-03T16:56:44.183Z,20.70
2017-11-03T16:59:11.655Z,18.47
2017-11-03T17:01:40.224Z,20.03
2017-11-03T17:04:07.771Z,19.63
2017-11-03T17:06:35.265Z,18.17
2017-11-03T17:09:02.769Z,17.30
2017-11-03T17:11:30.276Z,19.20
2017-11-03T17:13:57.758Z,18.27
2017-11-03T17:16:25.296Z,18.63
2017-11-03T17:18:52.777Z,19.67
2017-11-03T17:21:20.283Z,19.27
2017-11-03T17:23:47.747Z,19.80
2017-11-03T17:26:15.276Z,22.60
2017-11-03T17:28:43.016Z,20.07
2017-11-03T17:31:10.511Z,18.97
2017-11-03T17:33:38.031Z,20.33
2017-11-03T17:36:05.567Z,22.40
2017-11-03T17:38:33.643Z,22.40
2017-11-03T17:41:02.956Z,19.87
2017-11-03T17:43:30.514Z,19.47
2017-11-03T17:45:58.113Z,20.27
2017-11-03T17:48:25.903Z,19.70
2017-11-03T17:50:53.803Z,19.90
2017-11-03T17:53:21.440Z,20.23
2017-11-03T17:55:48.979Z,20.60
2017-11-03T17:58:16.968Z,20.90
2017-11-03T18:00:44.529Z,20.87
2017-11-03T18:03:12.099Z,25.70
2017-11-03T18:05:40.018Z,22.87
2017-11-03T18:08:07.709Z,22.77
2017-11-03T18:10:37.341Z,23.53
2017-11-03T18:13:04.908Z,21.63
2017-11-03T18:15:32.459Z,20.80
2017-11-03T18:17:59.961Z,21.83
2017-11-03T18:20:28.261Z,22.13
2017-11-03T18:22:56.503Z,21.50
2017-11-03T18:25:24.013Z,24.17
2017-11-03T18:27:51.553Z,23.07
2017-11-03T18:30:19.346Z,21.83
2017-11-03T18:32:46.887Z,22.83
2017-11-03T18:35:14.356Z,24.47
2017-11-03T18:37:41.890Z,23.10
2017-11-03T18:40:09.581Z,23.33
2017-11-03T18:42:37.085Z,23.97
2017-11-03T18:45:04.577Z,24.70
2017-11-03T18:47:32.046Z,24.27
2017-11-03T18:49:59.766Z,23.13
2017-11-03T18:52:27.250Z,21.67
2017-11-03T18:54:54.789Z,21.23
2017-11-03T18:57:23.143Z,20.50
2017-11-03T18:59:50.628Z,18.27
2017-11-03T19:02:18.168Z,20.10
2017-11-03T19:04:46.429Z,20.80
2017-11-03T19:07:13.907Z,20.13
2017-11-03T19:09:41.406Z,21.63
2017-11-03T19:12:08.913Z,20.90
2017-11-03T19:14:36.422Z,21.70
2017-11-03T19:17:03.914Z,21.47
2017-11-03T19:19:31.729Z,19.90
2017-11-03T19:22:00.387Z,19.40
2017-11-03T19:24:28.075Z,19.33
2017-11-03T19:26:55.620Z,19.70
2017-11-03T19:29:23.921Z,20.10
2017-11-03T19:31:51.435Z,19.70
2017-11-03T19:34:19.242Z,22.70
2017-11-03T19:36:46.749Z,22.97
2017-11-03T19:39:14.421Z,23.30
2017-11-03T19:41:41.911Z,21.77
2017-11-03T19:44:09.493Z,21.40
2017-11-03T19:46:36.952Z,22.43
2017-11-03T19:49:04.437Z,24.90
2017-11-03T19:51:31.988Z,23.93
2017-11-03T19:53:59.504Z,24.77
2017-11-03T19:56:28.085Z,25.57
2017-11-03T19:58:55.574Z,26.27
2017-11-03T20:01:23.065Z,24.27
2017-11-03T20:03:50.584Z,25.93
2017-11-03T20:06:18.126Z,21.27
2017-11-03T20:08:45.936Z,22.70
2017-11-03T20:11:13.518Z,26.47
2017-11-03T20:13:41.057Z,28.50
2017-11-03T20:16:09.535Z,25.83
2017-11-03T20:18:37.093Z,27.90
2017-11-03T20:21:04.585Z,26.93
2017-11-03T20:23:33.031Z,26.20
2017-11-03T20:26:00.542Z,26.17
2017-11-03T20:28:28.083Z,27.43
2017-11-03T20:30:56.352Z,28.93
2017-11-03T20:33:23.976Z,28.57
2017-11-03T20:35:51.511Z,29.23
2017-11-03T20:38:18.979Z,28.30
2017-11-03T20:40:46.468Z,27.60
2017-11-03T20:43:14.178Z,26.37
2017-11-03T20:45:41.681Z,25.50
2017-11-03T20:48:09.194Z,26.60
2017-11-03T20:50:37.449Z,26.00
2017-11-03T20:53:05.757Z,27.97
2017-11-03T20:55:33.379Z,26.90
2017-11-03T20:58:00.970Z,27.57
2017-11-03T21:00:28.516Z,27.83
2017-11-03T21:02:56.121Z,27.10
2017-11-03T21:05:25.230Z,26.37
2017-11-03T21:07:54.484Z,25.27
2017-11-03T21:10:22.102Z,27.93
2017-11-03T21:12:49.602Z,29.63
2017-11-03T21:15:17.912Z,28.33
2017-11-03T21:17:46.199Z,28.40
2017-11-03T21:20:13.817Z,29.67
2017-11-03T21:22:41.447Z,33.27
2017-11-03T21:25:09.750Z,33.33
2017-11-03T21:27:39.042Z,32.67
2017-11-03T21:30:07.336Z,29.23
2017-11-03T21:32:35.216Z,33.47
2017-11-03T21:35:02.767Z,33.57
2017-11-03T21:37:30.399Z,32.47
2017-11-03T21:39:58.721Z,34.27
2017-11-03T21:42:26.339Z,31.80
2017-11-03T21:44:53.825Z,33.60
2017-11-03T21:47:21.427Z,38.47
2017-11-03T21:49:49.021Z,35.07
2017-11-03T21:52:17.424Z,33.03
2017-11-03T21:54:44.990Z,36.70
2017-11-03T21:57:12.646Z,46.50
2017-11-03T21:59:40.344Z,37.77
2017-11-03T22:02:08.046Z,59.20
2017-11-03T22:04:35.597Z,39.83
2017-11-03T22:07:04.376Z,48.77
2017-11-03T22:09:32.670Z,51.27
2017-11-03T22:12:01.021Z,43.00
2017-11-03T22:14:28.684Z,48.40
2017-11-03T22:16:56.296Z,37.73
2017-11-03T22:19:23.847Z,39.20
2017-11-03T22:21:51.576Z,36.50
2017-11-03T22:24:19.557Z,39.17
2017-11-03T22:26:47.183Z,39.00
2017-11-03T22:29:14.923Z,37.60
2017-11-03T22:31:42.590Z,26.37
2017-11-03T22:34:10.253Z,29.80
2017-11-03T22:36:37.917Z,35.83
2017-11-03T22:39:09.118Z,30.60
2017-11-03T22:41:37.025Z,29.97
2017-11-03T22:44:04.640Z,29.90
2017-11-03T22:46:32.335Z,34.93
2017-11-03T22:49:00.005Z,36.57
2017-11-03T22:51:27.501Z,28.30
2017-11-03T22:53:54.988Z,22.07
2017-11-03T22:56:22.526Z,25.40
2017-11-03T22:58:50.090Z,26.87
2017-11-03T23:01:18.111Z,27.27
2017-11-03T23:03:45.604Z,21.83
2017-11-03T23:06:13.092Z,22.50
2017-11-03T23:08:40.616Z,24.60
2017-11-03T23:11:13.422Z,25.40
2017-11-03T23:13:41.661Z,26.90
2017-11-03T23:16:09.321Z,27.93
2017-11-03T23:18:36.818Z,30.10
2017-11-03T23:21:04.529Z,32.70
2017-11-03T23:23:32.013Z,31.07
2017-11-03T23:25:59.496Z,26.23
2017-11-03T23:28:27.831Z,28.30
2017-11-03T23:30:55.289Z,27.53
2017-11-03T23:33:23.232Z,32.90
2017-11-03T23:35:50.712Z,30.73
2017-11-03T23:38:18.215Z,27.73
2017-11-03T23:40:46.540Z,29.07
2017-11-03T23:43:14.018Z,29.60
2017-11-03T23:45:41.535Z,33.07
2017-11-03T23:48:10.303Z,29.43
2017-11-03T23:50:38.277Z,31.57
2017-11-03T23:53:05.943Z,27.20
2017-11-03T23:55:33.435Z,30.50
2017-11-03T23:58:01.010Z,33.87
